sensor_id;sensor_type;location;lat;lon;timestamp;P1;durP1;ratioP1;P2;durP2;ratioP2
38567;SDS011;24338;48.280;10.970;2023-02-11T00:01:04;40.03;;;24.02;;
38567;SDS011;24338;48.280;10.970;2023-02-11T00:03:32;42.90;;;25.20;;
38567;SDS011;24338;48.280;10.970;2023-02-11T00:05:59;43.25;;;25.92;;
38567;SDS011;24338;48.280;10.970;2023-02-11T00:08:27;49.75;;;26.67;;
38567;SDS011;24338;48.280;10.970;2023-02-11T00:10:54;40.05;;;25.58;;
38567;SDS011;24338;48.280;10.970;2023-02-11T00:13:22;41.03;;;24.85;;
38567;SDS011;24338;48.280;10.970;2023-02-11T00:15:50;45.67;;;26.45;;
38567;SDS011;24338;48.280;10.970;2023-02-11T00:18:17;42.28;;;25.35;;
38567;SDS011;24338;48.280;10.970;2023-02-11T00:20:44;43.13;;;24.20;;
38567;SDS011;24338;48.280;10.970;2023-02-11T00:23:10;43.20;;;25.30;;
38567;SDS011;24338;48.280;10.970;2023-02-11T00:25:39;45.33;;;24.15;;
38567;SDS011;24338;48.280;10.970;2023-02-11T00:28:06;45.47;;;25.92;;
38567;SDS011;24338;48.280;10.970;2023-02-11T00:30:34;35.00;;;21.65;;
38567;SDS011;24338;48.280;10.970;2023-02-11T00:33:01;41.95;;;24.63;;
38567;SDS011;24338;48.280;10.970;2023-02-11T00:35:28;37.95;;;22.60;;
38567;SDS011;24338;48.280;10.970;2023-02-11T00:37:55;38.75;;;22.65;;
38567;SDS011;24338;48.280;10.970;2023-02-11T00:40:22;44.05;;;22.27;;
38567;SDS011;24338;48.280;10.970;2023-02-11T00:42:48;42.33;;;24.33;;
38567;SDS011;24338;48.280;10.970;2023-02-11T00:45:15;37.53;;;21.50;;
38567;SDS011;24338;48.280;10.970;2023-02-11T00:47:42;41.25;;;22.40;;
38567;SDS011;24338;48.280;10.970;2023-02-11T00:50:09;38.92;;;22.33;;
38567;SDS011;24338;48.280;10.970;2023-02-11T00:52:36;37.15;;;22.35;;
38567;SDS011;24338;48.280;10.970;2023-02-11T00:55:03;35.13;;;21.05;;
38567;SDS011;24338;48.280;10.970;2023-02-11T00:57:30;31.23;;;19.77;;
38567;SDS011;24338;48.280;10.970;2023-02-11T00:59:56;37.28;;;21.83;;
38567;SDS011;24338;48.280;10.970;2023-02-11T01:02:23;33.90;;;20.33;;
38567;SDS011;24338;48.280;10.970;2023-02-11T01:04:50;39.28;;;21.83;;
38567;SDS011;24338;48.280;10.970;2023-02-11T01:07:17;39.63;;;22.38;;
38567;SDS011;24338;48.280;10.970;2023-02-11T01:09:43;34.70;;;20.55;;
38567;SDS011;24338;48.280;10.970;2023-02-11T01:12:10;40.13;;;23.35;;
38567;SDS011;24338;48.280;10.970;2023-02-11T01:14:37;32.15;;;19.73;;
38567;SDS011;24338;48.280;10.970;2023-02-11T01:17:04;36.42;;;20.50;;
38567;SDS011;24338;48.280;10.970;2023-02-11T01:19:31;36.72;;;20.13;;
38567;SDS011;24338;48.280;10.970;2023-02-11T01:21:58;34.80;;;20.88;;
38567;SDS011;24338;48.280;10.970;2023-02-11T01:24:25;33.08;;;19.60;;
38567;SDS011;24338;48.280;10.970;2023-02-11T01:26:52;32.55;;;19.00;;
38567;SDS011;24338;48.280;10.970;2023-02-11T01:29:19;37.08;;;21.00;;
38567;SDS011;24338;48.280;10.970;2023-02-11T01:31:46;36.00;;;21.48;;
38567;SDS011;24338;48.280;10.970;2023-02-11T01:34:13;36.42;;;19.30;;
38567;SDS011;24338;48.280;10.970;2023-02-11T01:36:40;34.58;;;20.45;;
38567;SDS011;24338;48.280;10.970;2023-02-11T01:39:07;33.13;;;19.23;;
38567;SDS011;24338;48.280;10.970;2023-02-11T01:41:34;35.10;;;20.48;;
38567;SDS011;24338;48.280;10.970;2023-02-11T01:46:58;37.53;;;20.10;;
38567;SDS011;24338;48.280;10.970;2023-02-11T01:49:36;40.05;;;21.63;;
38567;SDS011;24338;48.280;10.970;2023-02-11T01:52:07;34.05;;;19.38;;
38567;SDS011;24338;48.280;10.970;2023-02-11T01:54:42;38.47;;;20.67;;
38567;SDS011;24338;48.280;10.970;2023-02-11T01:57:32;33.07;;;18.77;;
38567;SDS011;24338;48.280;10.970;2023-02-11T02:05:20;33.55;;;18.63;;
38567;SDS011;24338;48.280;10.970;2023-02-11T02:10:40;37.85;;;20.50;;
38567;SDS011;24338;48.280;10.970;2023-02-11T02:13:09;34.50;;;19.77;;
38567;SDS011;24338;48.280;10.970;2023-02-11T02:15:36;35.33;;;19.90;;
38567;SDS011;24338;48.280;10.970;2023-02-11T02:18:19;35.40;;;20.67;;
38567;SDS011;24338;48.280;10.970;2023-02-11T02:21:12;34.17;;;19.02;;
38567;SDS011;24338;48.280;10.970;2023-02-11T02:26:50;33.90;;;18.17;;
38567;SDS011;24338;48.280;10.970;2023-02-11T02:35:51;30.85;;;18.70;;
38567;SDS011;24338;48.280;10.970;2023-02-11T02:41:26;28.58;;;17.05;;
38567;SDS011;24338;48.280;10.970;2023-02-11T02:43:55;32.72;;;17.25;;
38567;SDS011;24338;48.280;10.970;2023-02-11T02:46:26;31.77;;;17.38;;
38567;SDS011;24338;48.280;10.970;2023-02-11T02:48:56;30.23;;;18.02;;
38567;SDS011;24338;48.280;10.970;2023-02-11T03:10:07;29.63;;;16.55;;
38567;SDS011;24338;48.280;10.970;2023-02-11T03:12:37;29.67;;;15.77;;
38567;SDS011;24338;48.280;10.970;2023-02-11T03:15:07;27.70;;;14.57;;
38567;SDS011;24338;48.280;10.970;2023-02-11T03:17:35;31.08;;;16.23;;
38567;SDS011;24338;48.280;10.970;2023-02-11T03:20:06;31.65;;;17.25;;
38567;SDS011;24338;48.280;10.970;2023-02-11T03:22:39;32.05;;;16.30;;
38567;SDS011;24338;48.280;10.970;2023-02-11T03:25:11;25.30;;;14.27;;
38567;SDS011;24338;48.280;10.970;2023-02-11T03:30:37;24.67;;;13.23;;
38567;SDS011;24338;48.280;10.970;2023-02-11T03:33:23;27.02;;;13.90;;
38567;SDS011;24338;48.280;10.970;2023-02-11T03:36:01;23.98;;;13.68;;
38567;SDS011;24338;48.280;10.970;2023-02-11T03:38:32;26.95;;;15.98;;
38567;SDS011;24338;48.280;10.970;2023-02-11T03:41:03;28.27;;;14.00;;
38567;SDS011;24338;48.280;10.970;2023-02-11T03:46:01;27.00;;;15.77;;
38567;SDS011;24338;48.280;10.970;2023-02-11T03:48:30;25.83;;;13.65;;
38567;SDS011;24338;48.280;10.970;2023-02-11T03:51:09;23.55;;;14.18;;
38567;SDS011;24338;48.280;10.970;2023-02-11T03:53:38;26.65;;;14.65;;
38567;SDS011;24338;48.280;10.970;2023-02-11T03:56:09;25.75;;;14.05;;
38567;SDS011;24338;48.280;10.970;2023-02-11T03:58:40;27.73;;;13.32;;
38567;SDS011;24338;48.280;10.970;2023-02-11T04:01:09;26.55;;;14.18;;
38567;SDS011;24338;48.280;10.970;2023-02-11T04:03:35;23.58;;;12.30;;
38567;SDS011;24338;48.280;10.970;2023-02-11T04:06:02;23.00;;;12.65;;
38567;SDS011;24338;48.280;10.970;2023-02-11T04:08:29;20.92;;;11.05;;
38567;SDS011;24338;48.280;10.970;2023-02-11T04:10:58;20.95;;;12.43;;
38567;SDS011;24338;48.280;10.970;2023-02-11T04:13:24;23.15;;;12.00;;
38567;SDS011;24338;48.280;10.970;2023-02-11T04:15:51;24.30;;;13.98;;
38567;SDS011;24338;48.280;10.970;2023-02-11T04:18:19;22.33;;;12.43;;
38567;SDS011;24338;48.280;10.970;2023-02-11T04:20:46;24.45;;;14.07;;
38567;SDS011;24338;48.280;10.970;2023-02-11T04:23:15;21.33;;;11.52;;
38567;SDS011;24338;48.280;10.970;2023-02-11T04:25:42;23.15;;;11.95;;
38567;SDS011;24338;48.280;10.970;2023-02-11T04:28:08;21.85;;;12.27;;
38567;SDS011;24338;48.280;10.970;2023-02-11T04:30:35;21.75;;;11.75;;
38567;SDS011;24338;48.280;10.970;2023-02-11T04:33:02;25.70;;;13.27;;
38567;SDS011;24338;48.280;10.970;2023-02-11T04:35:29;26.17;;;12.57;;
38567;SDS011;24338;48.280;10.970;2023-02-11T04:37:55;23.08;;;12.90;;
38567;SDS011;24338;48.280;10.970;2023-02-11T04:40:22;23.08;;;11.80;;
38567;SDS011;24338;48.280;10.970;2023-02-11T04:42:49;20.45;;;11.75;;
38567;SDS011;24338;48.280;10.970;2023-02-11T04:45:16;18.67;;;11.20;;
38567;SDS011;24338;48.280;10.970;2023-02-11T04:47:43;20.83;;;11.13;;
38567;SDS011;24338;48.280;10.970;2023-02-11T04:50:09;23.00;;;12.75;;
38567;SDS011;24338;48.280;10.970;2023-02-11T04:52:36;22.35;;;11.90;;
38567;SDS011;24338;48.280;10.970;2023-02-11T04:55:03;24.05;;;11.75;;
38567;SDS011;24338;48.280;10.970;2023-02-11T04:57:30;22.63;;;12.02;;
38567;SDS011;24338;48.280;10.970;2023-02-11T04:59:57;22.27;;;12.43;;
38567;SDS011;24338;48.280;10.970;2023-02-11T05:02:24;18.83;;;11.02;;
38567;SDS011;24338;48.280;10.970;2023-02-11T05:04:50;19.33;;;10.95;;
38567;SDS011;24338;48.280;10.970;2023-02-11T05:07:17;22.40;;;12.05;;
38567;SDS011;24338;48.280;10.970;2023-02-11T05:09:44;20.63;;;12.02;;
38567;SDS011;24338;48.280;10.970;2023-02-11T05:12:11;21.70;;;11.07;;
38567;SDS011;24338;48.280;10.970;2023-02-11T05:14:38;20.67;;;10.93;;
38567;SDS011;24338;48.280;10.970;2023-02-11T05:17:04;19.85;;;11.27;;
38567;SDS011;24338;48.280;10.970;2023-02-11T05:19:31;25.90;;;13.20;;
38567;SDS011;24338;48.280;10.970;2023-02-11T05:21:58;24.48;;;11.75;;
38567;SDS011;24338;48.280;10.970;2023-02-11T05:24:29;17.60;;;11.15;;
38567;SDS011;24338;48.280;10.970;2023-02-11T05:26:59;22.27;;;11.68;;
38567;SDS011;24338;48.280;10.970;2023-02-11T05:29:26;17.90;;;10.70;;
38567;SDS011;24338;48.280;10.970;2023-02-11T05:31:53;23.80;;;10.65;;
38567;SDS011;24338;48.280;10.970;2023-02-11T05:34:20;20.10;;;10.52;;
38567;SDS011;24338;48.280;10.970;2023-02-11T05:36:46;19.70;;;10.25;;
38567;SDS011;24338;48.280;10.970;2023-02-11T05:39:13;20.83;;;11.25;;
38567;SDS011;24338;48.280;10.970;2023-02-11T05:41:40;22.30;;;12.55;;
38567;SDS011;24338;48.280;10.970;2023-02-11T05:44:07;22.35;;;11.32;;
38567;SDS011;24338;48.280;10.970;2023-02-11T05:46:34;19.40;;;11.18;;
38567;SDS011;24338;48.280;10.970;2023-02-11T05:49:01;17.40;;;11.25;;
38567;SDS011;24338;48.280;10.970;2023-02-11T05:51:28;14.82;;;9.70;;
38567;SDS011;24338;48.280;10.970;2023-02-11T05:53:55;21.40;;;11.10;;
38567;SDS011;24338;48.280;10.970;2023-02-11T05:56:21;16.20;;;9.95;;
38567;SDS011;24338;48.280;10.970;2023-02-11T05:58:48;19.27;;;10.48;;
38567;SDS011;24338;48.280;10.970;2023-02-11T06:01:15;17.33;;;10.07;;
38567;SDS011;24338;48.280;10.970;2023-02-11T06:03:42;21.60;;;11.10;;
38567;SDS011;24338;48.280;10.970;2023-02-11T06:06:10;17.83;;;10.18;;
38567;SDS011;24338;48.280;10.970;2023-02-11T06:08:37;18.63;;;11.25;;
38567;SDS011;24338;48.280;10.970;2023-02-11T06:11:04;17.35;;;10.30;;
38567;SDS011;24338;48.280;10.970;2023-02-11T06:13:31;18.77;;;10.07;;
38567;SDS011;24338;48.280;10.970;2023-02-11T06:15:58;19.75;;;9.73;;
38567;SDS011;24338;48.280;10.970;2023-02-11T06:18:27;17.02;;;9.65;;
38567;SDS011;24338;48.280;10.970;2023-02-11T06:20:54;19.83;;;10.05;;
38567;SDS011;24338;48.280;10.970;2023-02-11T06:23:21;19.77;;;10.82;;
38567;SDS011;24338;48.280;10.970;2023-02-11T06:25:48;16.83;;;9.68;;
38567;SDS011;24338;48.280;10.970;2023-02-11T06:28:16;19.85;;;10.40;;
38567;SDS011;24338;48.280;10.970;2023-02-11T06:30:43;18.48;;;9.95;;
38567;SDS011;24338;48.280;10.970;2023-02-11T06:33:10;17.20;;;10.23;;
38567;SDS011;24338;48.280;10.970;2023-02-11T06:35:37;18.00;;;9.90;;
38567;SDS011;24338;48.280;10.970;2023-02-11T06:38:05;18.83;;;10.75;;
38567;SDS011;24338;48.280;10.970;2023-02-11T06:40:31;19.55;;;10.93;;
38567;SDS011;24338;48.280;10.970;2023-02-11T06:42:58;15.73;;;8.85;;
38567;SDS011;24338;48.280;10.970;2023-02-11T06:45:25;16.33;;;9.27;;
38567;SDS011;24338;48.280;10.970;2023-02-11T06:47:52;18.70;;;9.10;;
38567;SDS011;24338;48.280;10.970;2023-02-11T06:50:18;19.02;;;9.88;;
38567;SDS011;24338;48.280;10.970;2023-02-11T06:52:45;19.75;;;9.18;;
38567;SDS011;24338;48.280;10.970;2023-02-11T06:55:12;16.35;;;9.07;;
38567;SDS011;24338;48.280;10.970;2023-02-11T06:57:40;17.02;;;9.85;;
38567;SDS011;24338;48.280;10.970;2023-02-11T07:00:07;15.52;;;8.85;;
38567;SDS011;24338;48.280;10.970;2023-02-11T07:02:34;18.13;;;8.90;;
38567;SDS011;24338;48.280;10.970;2023-02-11T07:05:01;17.73;;;8.93;;
38567;SDS011;24338;48.280;10.970;2023-02-11T07:07:30;13.45;;;9.27;;
38567;SDS011;24338;48.280;10.970;2023-02-11T07:09:59;14.90;;;8.88;;
38567;SDS011;24338;48.280;10.970;2023-02-11T07:12:28;14.35;;;9.55;;
38567;SDS011;24338;48.280;10.970;2023-02-11T07:14:55;16.85;;;9.18;;
38567;SDS011;24338;48.280;10.970;2023-02-11T07:17:22;15.38;;;9.48;;
38567;SDS011;24338;48.280;10.970;2023-02-11T07:19:49;17.42;;;10.25;;
38567;SDS011;24338;48.280;10.970;2023-02-11T07:22:16;17.40;;;10.32;;
38567;SDS011;24338;48.280;10.970;2023-02-11T07:24:43;19.33;;;11.25;;
38567;SDS011;24338;48.280;10.970;2023-02-11T07:27:10;20.35;;;9.65;;
38567;SDS011;24338;48.280;10.970;2023-02-11T07:29:36;17.42;;;9.55;;
38567;SDS011;24338;48.280;10.970;2023-02-11T07:32:04;15.00;;;9.38;;
38567;SDS011;24338;48.280;10.970;2023-02-11T07:34:31;16.02;;;8.55;;
38567;SDS011;24338;48.280;10.970;2023-02-11T07:36:58;15.93;;;8.45;;
38567;SDS011;24338;48.280;10.970;2023-02-11T07:39:25;15.40;;;8.98;;
38567;SDS011;24338;48.280;10.970;2023-02-11T07:41:53;17.45;;;8.55;;
38567;SDS011;24338;48.280;10.970;2023-02-11T07:44:20;14.15;;;7.28;;
38567;SDS011;24338;48.280;10.970;2023-02-11T07:46:47;12.50;;;7.43;;
38567;SDS011;24338;48.280;10.970;2023-02-11T07:49:14;12.55;;;6.95;;
38567;SDS011;24338;48.280;10.970;2023-02-11T07:51:41;14.45;;;8.27;;
38567;SDS011;24338;48.280;10.970;2023-02-11T07:54:09;14.35;;;7.25;;
38567;SDS011;24338;48.280;10.970;2023-02-11T07:56:37;12.05;;;7.63;;
38567;SDS011;24338;48.280;10.970;2023-02-11T07:59:04;12.60;;;6.40;;
38567;SDS011;24338;48.280;10.970;2023-02-11T08:01:31;11.23;;;6.28;;
38567;SDS011;24338;48.280;10.970;2023-02-11T08:03:58;11.90;;;6.93;;
38567;SDS011;24338;48.280;10.970;2023-02-11T08:06:27;12.35;;;7.15;;
38567;SDS011;24338;48.280;10.970;2023-02-11T08:08:56;13.13;;;7.60;;
38567;SDS011;24338;48.280;10.970;2023-02-11T08:11:24;11.07;;;6.40;;
38567;SDS011;24338;48.280;10.970;2023-02-11T08:13:52;12.45;;;7.43;;
38567;SDS011;24338;48.280;10.970;2023-02-11T08:16:24;14.50;;;8.07;;
38567;SDS011;24338;48.280;10.970;2023-02-11T08:18:57;12.25;;;7.53;;
38567;SDS011;24338;48.280;10.970;2023-02-11T08:21:25;14.82;;;7.53;;
38567;SDS011;24338;48.280;10.970;2023-02-11T08:23:52;12.98;;;7.03;;
38567;SDS011;24338;48.280;10.970;2023-02-11T08:26:27;13.35;;;7.47;;
38567;SDS011;24338;48.280;10.970;2023-02-11T08:28:55;12.18;;;6.72;;
38567;SDS011;24338;48.280;10.970;2023-02-11T08:31:24;14.40;;;8.18;;
38567;SDS011;24338;48.280;10.970;2023-02-11T08:33:53;15.13;;;8.88;;
38567;SDS011;24338;48.280;10.970;2023-02-11T08:36:25;15.23;;;7.95;;
38567;SDS011;24338;48.280;10.970;2023-02-11T08:38:59;13.45;;;8.20;;
38567;SDS011;24338;48.280;10.970;2023-02-11T08:41:45;14.75;;;8.93;;
38567;SDS011;24338;48.280;10.970;2023-02-11T08:44:14;14.70;;;8.63;;
38567;SDS011;24338;48.280;10.970;2023-02-11T08:46:41;13.27;;;8.50;;
38567;SDS011;24338;48.280;10.970;2023-02-11T08:49:07;15.55;;;8.55;;
38567;SDS011;24338;48.280;10.970;2023-02-11T08:51:34;19.92;;;8.73;;
38567;SDS011;24338;48.280;10.970;2023-02-11T08:54:01;14.43;;;8.20;;
38567;SDS011;24338;48.280;10.970;2023-02-11T08:56:28;16.75;;;8.63;;
38567;SDS011;24338;48.280;10.970;2023-02-11T08:58:56;18.77;;;10.40;;
38567;SDS011;24338;48.280;10.970;2023-02-11T09:01:25;17.02;;;9.68;;
38567;SDS011;24338;48.280;10.970;2023-02-11T09:03:54;16.80;;;9.68;;
38567;SDS011;24338;48.280;10.970;2023-02-11T09:06:22;16.83;;;9.10;;
38567;SDS011;24338;48.280;10.970;2023-02-11T09:08:51;17.02;;;10.50;;
38567;SDS011;24338;48.280;10.970;2023-02-11T09:11:21;17.15;;;9.68;;
38567;SDS011;24338;48.280;10.970;2023-02-11T09:13:52;16.98;;;9.73;;
38567;SDS011;24338;48.280;10.970;2023-02-11T09:16:23;16.13;;;9.70;;
38567;SDS011;24338;48.280;10.970;2023-02-11T09:18:52;15.90;;;10.27;;
38567;SDS011;24338;48.280;10.970;2023-02-11T09:21:21;17.30;;;10.25;;
38567;SDS011;24338;48.280;10.970;2023-02-11T09:23:48;19.77;;;10.73;;
38567;SDS011;24338;48.280;10.970;2023-02-11T09:26:19;20.17;;;11.80;;
38567;SDS011;24338;48.280;10.970;2023-02-11T09:28:48;20.00;;;11.23;;
38567;SDS011;24338;48.280;10.970;2023-02-11T09:31:17;19.02;;;11.48;;
38567;SDS011;24338;48.280;10.970;2023-02-11T09:33:47;20.35;;;10.57;;
38567;SDS011;24338;48.280;10.970;2023-02-11T09:36:16;24.33;;;13.63;;
38567;SDS011;24338;48.280;10.970;2023-02-11T09:38:45;22.73;;;13.52;;
38567;SDS011;24338;48.280;10.970;2023-02-11T09:43:52;21.33;;;12.52;;
38567;SDS011;24338;48.280;10.970;2023-02-11T09:46:22;19.90;;;14.25;;
38567;SDS011;24338;48.280;10.970;2023-02-11T09:48:52;21.98;;;13.52;;
38567;SDS011;24338;48.280;10.970;2023-02-11T09:54:11;22.90;;;12.32;;
38567;SDS011;24338;48.280;10.970;2023-02-11T09:56:48;22.63;;;13.38;;
38567;SDS011;24338;48.280;10.970;2023-02-11T09:59:15;22.35;;;12.65;;
38567;SDS011;24338;48.280;10.970;2023-02-11T10:01:47;20.15;;;11.93;;
38567;SDS011;24338;48.280;10.970;2023-02-11T10:15:27;22.10;;;13.80;;
38567;SDS011;24338;48.280;10.970;2023-02-11T10:21:06;23.75;;;14.75;;
38567;SDS011;24338;48.280;10.970;2023-02-11T10:24:23;25.33;;;14.95;;
38567;SDS011;24338;48.280;10.970;2023-02-11T10:26:51;24.95;;;14.63;;
38567;SDS011;24338;48.280;10.970;2023-02-11T10:29:37;22.90;;;14.40;;
38567;SDS011;24338;48.280;10.970;2023-02-11T10:34:59;25.02;;;14.60;;
38567;SDS011;24338;48.280;10.970;2023-02-11T10:37:29;21.65;;;14.18;;
38567;SDS011;24338;48.280;10.970;2023-02-11T10:39:56;21.58;;;13.88;;
38567;SDS011;24338;48.280;10.970;2023-02-11T10:42:23;23.10;;;14.25;;
38567;SDS011;24338;48.280;10.970;2023-02-11T10:47:30;22.25;;;14.15;;
38567;SDS011;24338;48.280;10.970;2023-02-11T10:52:50;24.65;;;15.27;;
38567;SDS011;24338;48.280;10.970;2023-02-11T10:55:21;29.55;;;15.50;;
38567;SDS011;24338;48.280;10.970;2023-02-11T10:57:53;24.40;;;16.00;;
38567;SDS011;24338;48.280;10.970;2023-02-11T11:00:30;25.20;;;15.63;;
38567;SDS011;24338;48.280;10.970;2023-02-11T11:02:59;24.83;;;15.43;;
38567;SDS011;24338;48.280;10.970;2023-02-11T11:06:09;25.83;;;15.50;;
38567;SDS011;24338;48.280;10.970;2023-02-11T11:08:36;25.17;;;15.15;;
38567;SDS011;24338;48.280;10.970;2023-02-11T11:11:06;23.95;;;16.17;;
38567;SDS011;24338;48.280;10.970;2023-02-11T11:13:42;24.20;;;14.85;;
38567;SDS011;24338;48.280;10.970;2023-02-11T11:16:25;22.83;;;14.52;;
38567;SDS011;24338;48.280;10.970;2023-02-11T11:21:40;25.98;;;15.27;;
38567;SDS011;24338;48.280;10.970;2023-02-11T11:24:14;31.27;;;18.02;;
38567;SDS011;24338;48.280;10.970;2023-02-11T11:26:43;26.80;;;17.08;;
38567;SDS011;24338;48.280;10.970;2023-02-11T11:29:26;26.27;;;16.52;;
38567;SDS011;24338;48.280;10.970;2023-02-11T11:32:05;31.80;;;19.92;;
38567;SDS011;24338;48.280;10.970;2023-02-11T11:34:40;30.13;;;17.23;;
38567;SDS011;24338;48.280;10.970;2023-02-11T11:37:20;23.88;;;14.23;;
38567;SDS011;24338;48.280;10.970;2023-02-11T11:42:35;27.20;;;19.27;;
38567;SDS011;24338;48.280;10.970;2023-02-11T11:47:53;21.88;;;15.70;;
38567;SDS011;24338;48.280;10.970;2023-02-11T11:50:42;26.13;;;16.33;;
38567;SDS011;24338;48.280;10.970;2023-02-11T11:53:14;27.67;;;15.73;;
38567;SDS011;24338;48.280;10.970;2023-02-11T11:56:01;27.05;;;16.85;;
38567;SDS011;24338;48.280;10.970;2023-02-11T11:58:32;29.17;;;16.98;;
38567;SDS011;24338;48.280;10.970;2023-02-11T12:25:42;25.35;;;15.80;;
38567;SDS011;24338;48.280;10.970;2023-02-11T12:28:19;25.30;;;15.40;;
38567;SDS011;24338;48.280;10.970;2023-02-11T12:39:21;26.23;;;15.60;;
38567;SDS011;24338;48.280;10.970;2023-02-11T12:42:08;25.52;;;15.07;;
38567;SDS011;24338;48.280;10.970;2023-02-11T12:52:58;26.48;;;15.73;;
38567;SDS011;24338;48.280;10.970;2023-02-11T12:55:37;34.20;;;16.58;;
38567;SDS011;24338;48.280;10.970;2023-02-11T13:03:23;28.08;;;18.88;;
38567;SDS011;24338;48.280;10.970;2023-02-11T13:06:06;26.90;;;16.15;;
38567;SDS011;24338;48.280;10.970;2023-02-11T13:08:51;22.40;;;13.52;;
38567;SDS011;24338;48.280;10.970;2023-02-11T13:11:43;22.70;;;14.27;;
38567;SDS011;24338;48.280;10.970;2023-02-11T13:14:24;19.23;;;12.23;;
38567;SDS011;24338;48.280;10.970;2023-02-11T13:16:56;22.35;;;14.00;;
38567;SDS011;24338;48.280;10.970;2023-02-11T13:22:10;20.20;;;12.88;;
38567;SDS011;24338;48.280;10.970;2023-02-11T13:27:32;18.98;;;12.63;;
38567;SDS011;24338;48.280;10.970;2023-02-11T13:35:31;20.25;;;12.40;;
38567;SDS011;24338;48.280;10.970;2023-02-11T13:38:05;18.17;;;12.40;;
38567;SDS011;24338;48.280;10.970;2023-02-11T13:40:43;19.17;;;12.65;;
38567;SDS011;24338;48.280;10.970;2023-02-11T13:43:21;17.55;;;12.10;;
38567;SDS011;24338;48.280;10.970;2023-02-11T13:45:50;17.60;;;11.38;;
38567;SDS011;24338;48.280;10.970;2023-02-11T13:48:29;17.10;;;12.10;;
38567;SDS011;24338;48.280;10.970;2023-02-11T13:51:01;25.50;;;14.25;;
38567;SDS011;24338;48.280;10.970;2023-02-11T13:56:22;25.05;;;14.55;;
38567;SDS011;24338;48.280;10.970;2023-02-11T13:58:49;25.92;;;15.25;;
38567;SDS011;24338;48.280;10.970;2023-02-11T14:01:37;18.30;;;12.10;;
38567;SDS011;24338;48.280;10.970;2023-02-11T14:04:44;18.13;;;10.82;;
38567;SDS011;24338;48.280;10.970;2023-02-11T14:08:10;16.83;;;10.32;;
38567;SDS011;24338;48.280;10.970;2023-02-11T14:13:31;15.88;;;9.13;;
38567;SDS011;24338;48.280;10.970;2023-02-11T14:16:05;20.95;;;11.88;;
38567;SDS011;24338;48.280;10.970;2023-02-11T14:23:41;16.05;;;11.13;;
38567;SDS011;24338;48.280;10.970;2023-02-11T14:26:21;16.33;;;10.85;;
38567;SDS011;24338;48.280;10.970;2023-02-11T14:35:47;17.52;;;10.73;;
38567;SDS011;24338;48.280;10.970;2023-02-11T14:41:04;18.25;;;10.20;;
38567;SDS011;24338;48.280;10.970;2023-02-11T14:43:43;17.83;;;10.32;;
38567;SDS011;24338;48.280;10.970;2023-02-11T14:46:16;13.38;;;10.00;;
38567;SDS011;24338;48.280;10.970;2023-02-11T14:48:48;18.02;;;10.73;;
38567;SDS011;24338;48.280;10.970;2023-02-11T14:51:20;14.63;;;11.10;;
38567;SDS011;24338;48.280;10.970;2023-02-11T14:56:23;15.75;;;10.35;;
38567;SDS011;24338;48.280;10.970;2023-02-11T14:58:52;18.42;;;11.45;;
38567;SDS011;24338;48.280;10.970;2023-02-11T15:04:02;24.80;;;15.93;;
38567;SDS011;24338;48.280;10.970;2023-02-11T15:06:40;18.67;;;13.13;;
38567;SDS011;24338;48.280;10.970;2023-02-11T15:09:13;30.42;;;19.02;;
38567;SDS011;24338;48.280;10.970;2023-02-11T15:11:44;28.23;;;18.60;;
38567;SDS011;24338;48.280;10.970;2023-02-11T15:14:23;18.05;;;12.23;;
38567;SDS011;24338;48.280;10.970;2023-02-11T15:16:53;18.00;;;10.25;;
38567;SDS011;24338;48.280;10.970;2023-02-11T15:19:23;16.73;;;10.30;;
38567;SDS011;24338;48.280;10.970;2023-02-11T15:24:25;15.60;;;10.07;;
38567;SDS011;24338;48.280;10.970;2023-02-11T15:27:01;17.25;;;11.45;;
38567;SDS011;24338;48.280;10.970;2023-02-11T15:29:45;17.02;;;11.45;;
38567;SDS011;24338;48.280;10.970;2023-02-11T15:32:22;16.15;;;11.10;;
38567;SDS011;24338;48.280;10.970;2023-02-11T15:34:51;18.27;;;12.77;;
38567;SDS011;24338;48.280;10.970;2023-02-11T15:37:20;18.15;;;11.98;;
38567;SDS011;24338;48.280;10.970;2023-02-11T15:39:47;18.23;;;12.23;;
38567;SDS011;24338;48.280;10.970;2023-02-11T15:42:27;20.75;;;11.60;;
38567;SDS011;24338;48.280;10.970;2023-02-11T15:47:51;19.83;;;13.98;;
38567;SDS011;24338;48.280;10.970;2023-02-11T15:50:20;18.98;;;12.35;;
38567;SDS011;24338;48.280;10.970;2023-02-11T15:52:52;18.85;;;13.55;;
38567;SDS011;24338;48.280;10.970;2023-02-11T15:55:21;18.42;;;11.88;;
38567;SDS011;24338;48.280;10.970;2023-02-11T15:57:59;19.42;;;11.85;;
38567;SDS011;24338;48.280;10.970;2023-02-11T16:00:31;23.35;;;14.20;;
38567;SDS011;24338;48.280;10.970;2023-02-11T16:03:02;20.42;;;13.60;;
38567;SDS011;24338;48.280;10.970;2023-02-11T16:05:32;18.88;;;12.27;;
38567;SDS011;24338;48.280;10.970;2023-02-11T16:08:21;18.33;;;12.48;;
38567;SDS011;24338;48.280;10.970;2023-02-11T16:11:01;18.63;;;12.15;;
38567;SDS011;24338;48.280;10.970;2023-02-11T16:13:44;17.73;;;12.65;;
38567;SDS011;24338;48.280;10.970;2023-02-11T16:16:21;20.27;;;12.93;;
38567;SDS011;24338;48.280;10.970;2023-02-11T16:18:51;19.48;;;13.07;;
38567;SDS011;24338;48.280;10.970;2023-02-11T16:21:32;18.85;;;12.60;;
38567;SDS011;24338;48.280;10.970;2023-02-11T16:24:06;18.35;;;12.35;;
38567;SDS011;24338;48.280;10.970;2023-02-11T16:26:40;18.85;;;13.65;;
38567;SDS011;24338;48.280;10.970;2023-02-11T16:29:13;19.40;;;13.90;;
38567;SDS011;24338;48.280;10.970;2023-02-11T16:31:43;19.63;;;13.13;;
38567;SDS011;24338;48.280;10.970;2023-02-11T16:34:13;18.98;;;12.15;;
38567;SDS011;24338;48.280;10.970;2023-02-11T16:36:50;23.23;;;15.38;;
38567;SDS011;24338;48.280;10.970;2023-02-11T16:39:18;24.23;;;14.32;;
38567;SDS011;24338;48.280;10.970;2023-02-11T16:41:49;22.30;;;16.17;;
38567;SDS011;24338;48.280;10.970;2023-02-11T16:44:17;18.98;;;14.00;;
38567;SDS011;24338;48.280;10.970;2023-02-11T16:46:44;21.38;;;13.43;;
38567;SDS011;24338;48.280;10.970;2023-02-11T16:49:15;17.17;;;12.32;;
38567;SDS011;24338;48.280;10.970;2023-02-11T16:51:58;16.90;;;13.13;;
38567;SDS011;24338;48.280;10.970;2023-02-11T16:54:27;19.70;;;12.68;;
38567;SDS011;24338;48.280;10.970;2023-02-11T16:56:54;19.58;;;12.95;;
38567;SDS011;24338;48.280;10.970;2023-02-11T16:59:21;24.27;;;13.57;;
38567;SDS011;24338;48.280;10.970;2023-02-11T17:01:49;21.40;;;14.07;;
38567;SDS011;24338;48.280;10.970;2023-02-11T17:04:24;21.58;;;14.18;;
38567;SDS011;24338;48.280;10.970;2023-02-11T17:06:53;19.63;;;12.40;;
38567;SDS011;24338;48.280;10.970;2023-02-11T17:09:24;19.95;;;12.48;;
38567;SDS011;24338;48.280;10.970;2023-02-11T17:11:55;35.17;;;19.98;;
38567;SDS011;24338;48.280;10.970;2023-02-11T17:14:22;98.55;;;54.08;;
38567;SDS011;24338;48.280;10.970;2023-02-11T17:16:49;75.88;;;47.00;;
38567;SDS011;24338;48.280;10.970;2023-02-11T17:19:17;48.45;;;33.58;;
38567;SDS011;24338;48.280;10.970;2023-02-11T17:21:48;38.40;;;24.05;;
38567;SDS011;24338;48.280;10.970;2023-02-11T17:24:17;31.20;;;20.08;;